sensor_id;sensor_type;location;lat;lon;timestamp;P1;durP1;ratioP1;P2;durP2;ratioP2
36355;SDS011;22384;54.302;18.596;2022-10-31T00:01:40;19.10;;;11.23;;
36355;SDS011;22384;54.302;18.596;2022-10-31T00:04:07;20.45;;;11.90;;
36355;SDS011;22384;54.302;18.596;2022-10-31T00:06:33;14.85;;;10.75;;
36355;SDS011;22384;54.302;18.596;2022-10-31T00:09:00;17.67;;;10.43;;
36355;SDS011;22384;54.302;18.596;2022-10-31T00:11:26;20.30;;;11.30;;
36355;SDS011;22384;54.302;18.596;2022-10-31T00:13:52;21.40;;;11.57;;
36355;SDS011;22384;54.302;18.596;2022-10-31T00:16:20;23.25;;;11.13;;
36355;SDS011;22384;54.302;18.596;2022-10-31T00:18:49;17.25;;;10.75;;
36355;SDS011;22384;54.302;18.596;2022-10-31T00:21:16;21.15;;;11.38;;
36355;SDS011;22384;54.302;18.596;2022-10-31T00:23:42;20.52;;;11.70;;
36355;SDS011;22384;54.302;18.596;2022-10-31T00:26:09;18.85;;;10.57;;
36355;SDS011;22384;54.302;18.596;2022-10-31T00:28:35;17.88;;;11.15;;
36355;SDS011;22384;54.302;18.596;2022-10-31T00:31:02;15.82;;;9.88;;
36355;SDS011;22384;54.302;18.596;2022-10-31T00:33:29;19.25;;;11.15;;
36355;SDS011;22384;54.302;18.596;2022-10-31T00:35:55;17.45;;;10.88;;
36355;SDS011;22384;54.302;18.596;2022-10-31T00:38:21;25.13;;;11.07;;
36355;SDS011;22384;54.302;18.596;2022-10-31T00:40:47;23.35;;;12.13;;
36355;SDS011;22384;54.302;18.596;2022-10-31T00:43:14;17.92;;;11.02;;
36355;SDS011;22384;54.302;18.596;2022-10-31T00:45:41;19.50;;;11.38;;
36355;SDS011;22384;54.302;18.596;2022-10-31T00:48:07;26.85;;;13.05;;
36355;SDS011;22384;54.302;18.596;2022-10-31T00:50:33;28.98;;;13.65;;
36355;SDS011;22384;54.302;18.596;2022-10-31T00:53:00;25.88;;;13.68;;
36355;SDS011;22384;54.302;18.596;2022-10-31T00:55:26;30.08;;;13.52;;
36355;SDS011;22384;54.302;18.596;2022-10-31T00:57:52;33.83;;;12.98;;
36355;SDS011;22384;54.302;18.596;2022-10-31T01:00:18;28.80;;;12.57;;
36355;SDS011;22384;54.302;18.596;2022-10-31T01:02:44;30.75;;;14.65;;
36355;SDS011;22384;54.302;18.596;2022-10-31T01:05:11;35.40;;;14.63;;
36355;SDS011;22384;54.302;18.596;2022-10-31T01:07:37;34.28;;;15.15;;
36355;SDS011;22384;54.302;18.596;2022-10-31T01:10:04;34.42;;;14.70;;
36355;SDS011;22384;54.302;18.596;2022-10-31T01:12:35;34.08;;;15.88;;
36355;SDS011;22384;54.302;18.596;2022-10-31T01:15:02;40.47;;;15.32;;
36355;SDS011;22384;54.302;18.596;2022-10-31T01:17:28;34.70;;;15.18;;
36355;SDS011;22384;54.302;18.596;2022-10-31T01:19:54;41.30;;;16.38;;
36355;SDS011;22384;54.302;18.596;2022-10-31T01:22:21;40.33;;;17.02;;
36355;SDS011;22384;54.302;18.596;2022-10-31T01:24:47;37.13;;;15.07;;
36355;SDS011;22384;54.302;18.596;2022-10-31T01:27:13;39.60;;;15.43;;
36355;SDS011;22384;54.302;18.596;2022-10-31T01:29:39;43.80;;;15.75;;
36355;SDS011;22384;54.302;18.596;2022-10-31T01:32:05;48.00;;;15.95;;
36355;SDS011;22384;54.302;18.596;2022-10-31T01:34:31;60.95;;;17.33;;
36355;SDS011;22384;54.302;18.596;2022-10-31T01:36:57;55.28;;;18.40;;
36355;SDS011;22384;54.302;18.596;2022-10-31T01:39:24;71.28;;;22.67;;
36355;SDS011;22384;54.302;18.596;2022-10-31T01:41:51;98.53;;;31.00;;
36355;SDS011;22384;54.302;18.596;2022-10-31T01:49:11;177.70;;;60.65;;
36355;SDS011;22384;54.302;18.596;2022-10-31T01:51:40;199.63;;;68.65;;
36355;SDS011;22384;54.302;18.596;2022-10-31T01:54:10;183.80;;;63.35;;
36355;SDS011;22384;54.302;18.596;2022-10-31T01:56:39;186.43;;;62.55;;
36355;SDS011;22384;54.302;18.596;2022-10-31T01:59:07;109.40;;;31.58;;
36355;SDS011;22384;54.302;18.596;2022-10-31T02:01:35;86.13;;;24.08;;
36355;SDS011;22384;54.302;18.596;2022-10-31T02:04:01;74.40;;;23.08;;
36355;SDS011;22384;54.302;18.596;2022-10-31T02:06:32;79.45;;;22.40;;
36355;SDS011;22384;54.302;18.596;2022-10-31T02:08:59;81.28;;;22.48;;
36355;SDS011;22384;54.302;18.596;2022-10-31T02:11:27;71.43;;;20.67;;
36355;SDS011;22384;54.302;18.596;2022-10-31T02:13:54;70.07;;;20.85;;
36355;SDS011;22384;54.302;18.596;2022-10-31T02:16:20;55.55;;;18.90;;
36355;SDS011;22384;54.302;18.596;2022-10-31T02:18:47;38.90;;;16.73;;
36355;SDS011;22384;54.302;18.596;2022-10-31T02:29:10;32.60;;;14.00;;
36355;SDS011;22384;54.302;18.596;2022-10-31T02:31:43;29.88;;;14.05;;
36355;SDS011;22384;54.302;18.596;2022-10-31T02:36:48;23.17;;;13.63;;
36355;SDS011;22384;54.302;18.596;2022-10-31T02:39:18;23.50;;;13.60;;
36355;SDS011;22384;54.302;18.596;2022-10-31T02:42:24;29.00;;;13.97;;
36355;SDS011;22384;54.302;18.596;2022-10-31T02:44:57;24.42;;;13.52;;
36355;SDS011;22384;54.302;18.596;2022-10-31T02:47:26;27.40;;;14.23;;
36355;SDS011;22384;54.302;18.596;2022-10-31T02:52:29;27.65;;;14.00;;
36355;SDS011;22384;54.302;18.596;2022-10-31T02:54:56;25.38;;;13.63;;
36355;SDS011;22384;54.302;18.596;2022-10-31T02:57:25;28.08;;;13.52;;
36355;SDS011;22384;54.302;18.596;2022-10-31T02:59:55;28.90;;;14.48;;
36355;SDS011;22384;54.302;18.596;2022-10-31T03:02:25;34.05;;;14.88;;
36355;SDS011;22384;54.302;18.596;2022-10-31T03:04:58;36.53;;;15.27;;
36355;SDS011;22384;54.302;18.596;2022-10-31T03:10:16;51.88;;;15.35;;
36355;SDS011;22384;54.302;18.596;2022-10-31T03:12:40;46.58;;;15.43;;
36355;SDS011;22384;54.302;18.596;2022-10-31T03:17:50;69.68;;;17.48;;
36355;SDS011;22384;54.302;18.596;2022-10-31T03:20:20;73.82;;;18.63;;
36355;SDS011;22384;54.302;18.596;2022-10-31T03:22:48;60.10;;;16.17;;
36355;SDS011;22384;54.302;18.596;2022-10-31T03:25:14;48.67;;;16.27;;
36355;SDS011;22384;54.302;18.596;2022-10-31T03:27:42;48.50;;;16.55;;
36355;SDS011;22384;54.302;18.596;2022-10-31T03:30:10;51.00;;;17.92;;
36355;SDS011;22384;54.302;18.596;2022-10-31T03:32:41;50.22;;;17.73;;
36355;SDS011;22384;54.302;18.596;2022-10-31T03:35:09;58.45;;;18.55;;
36355;SDS011;22384;54.302;18.596;2022-10-31T03:37:36;64.43;;;19.10;;
36355;SDS011;22384;54.302;18.596;2022-10-31T03:40:04;67.35;;;19.50;;
36355;SDS011;22384;54.302;18.596;2022-10-31T03:42:33;67.93;;;20.45;;
36355;SDS011;22384;54.302;18.596;2022-10-31T03:45:04;60.38;;;21.40;;
36355;SDS011;22384;54.302;18.596;2022-10-31T03:47:32;63.70;;;21.15;;
36355;SDS011;22384;54.302;18.596;2022-10-31T03:49:58;89.30;;;21.45;;
36355;SDS011;22384;54.302;18.596;2022-10-31T03:54:58;64.15;;;21.75;;
36355;SDS011;22384;54.302;18.596;2022-10-31T03:57:27;81.47;;;22.17;;
36355;SDS011;22384;54.302;18.596;2022-10-31T03:59:57;83.10;;;21.70;;
36355;SDS011;22384;54.302;18.596;2022-10-31T04:02:26;52.20;;;21.95;;
36355;SDS011;22384;54.302;18.596;2022-10-31T04:04:54;79.10;;;20.70;;
36355;SDS011;22384;54.302;18.596;2022-10-31T04:07:21;63.33;;;20.77;;
36355;SDS011;22384;54.302;18.596;2022-10-31T04:09:50;57.17;;;19.33;;
36355;SDS011;22384;54.302;18.596;2022-10-31T04:12:17;91.63;;;21.38;;
36355;SDS011;22384;54.302;18.596;2022-10-31T04:14:44;65.30;;;21.48;;
36355;SDS011;22384;54.302;18.596;2022-10-31T04:17:13;77.95;;;20.92;;
36355;SDS011;22384;54.302;18.596;2022-10-31T04:19:40;74.80;;;20.75;;
36355;SDS011;22384;54.302;18.596;2022-10-31T04:22:07;83.13;;;21.33;;
36355;SDS011;22384;54.302;18.596;2022-10-31T04:24:33;78.88;;;20.83;;
36355;SDS011;22384;54.302;18.596;2022-10-31T04:26:59;61.70;;;20.48;;
36355;SDS011;22384;54.302;18.596;2022-10-31T04:29:25;68.28;;;19.85;;
36355;SDS011;22384;54.302;18.596;2022-10-31T04:31:51;54.72;;;19.85;;
36355;SDS011;22384;54.302;18.596;2022-10-31T04:34:17;58.95;;;20.20;;
36355;SDS011;22384;54.302;18.596;2022-10-31T04:36:43;103.57;;;21.02;;
36355;SDS011;22384;54.302;18.596;2022-10-31T04:39:09;54.35;;;18.92;;
36355;SDS011;22384;54.302;18.596;2022-10-31T04:41:35;52.50;;;20.17;;
36355;SDS011;22384;54.302;18.596;2022-10-31T04:44:02;45.90;;;20.55;;
36355;SDS011;22384;54.302;18.596;2022-10-31T04:46:28;37.15;;;20.10;;
36355;SDS011;22384;54.302;18.596;2022-10-31T04:48:55;47.75;;;20.70;;
36355;SDS011;22384;54.302;18.596;2022-10-31T04:51:21;60.80;;;22.00;;
36355;SDS011;22384;54.302;18.596;2022-10-31T04:53:47;131.13;;;21.15;;
36355;SDS011;22384;54.302;18.596;2022-10-31T04:56:13;103.30;;;36.58;;
36355;SDS011;22384;54.302;18.596;2022-10-31T04:58:40;129.30;;;32.10;;
36355;SDS011;22384;54.302;18.596;2022-10-31T05:01:06;81.90;;;25.65;;
36355;SDS011;22384;54.302;18.596;2022-10-31T05:03:32;80.97;;;22.83;;
36355;SDS011;22384;54.302;18.596;2022-10-31T05:05:58;82.82;;;23.55;;
36355;SDS011;22384;54.302;18.596;2022-10-31T05:08:24;66.25;;;22.08;;
36355;SDS011;22384;54.302;18.596;2022-10-31T05:10:50;80.18;;;24.02;;
36355;SDS011;22384;54.302;18.596;2022-10-31T05:13:17;93.80;;;26.20;;
36355;SDS011;22384;54.302;18.596;2022-10-31T05:15:43;62.13;;;26.00;;
36355;SDS011;22384;54.302;18.596;2022-10-31T05:18:09;95.45;;;34.17;;
36355;SDS011;22384;54.302;18.596;2022-10-31T05:20:35;100.70;;;53.10;;
36355;SDS011;22384;54.302;18.596;2022-10-31T05:23:01;104.60;;;41.95;;
36355;SDS011;22384;54.302;18.596;2022-10-31T05:25:28;130.52;;;37.28;;
36355;SDS011;22384;54.302;18.596;2022-10-31T05:27:55;149.85;;;35.53;;
36355;SDS011;22384;54.302;18.596;2022-10-31T05:30:23;178.38;;;43.17;;
36355;SDS011;22384;54.302;18.596;2022-10-31T05:32:50;183.63;;;61.85;;
36355;SDS011;22384;54.302;18.596;2022-10-31T05:35:26;148.13;;;43.17;;
36355;SDS011;22384;54.302;18.596;2022-10-31T05:37:53;124.35;;;33.65;;
36355;SDS011;22384;54.302;18.596;2022-10-31T05:40:19;144.50;;;31.25;;
36355;SDS011;22384;54.302;18.596;2022-10-31T05:42:46;145.80;;;34.40;;
36355;SDS011;22384;54.302;18.596;2022-10-31T05:45:13;122.38;;;33.05;;
36355;SDS011;22384;54.302;18.596;2022-10-31T05:47:40;174.23;;;32.03;;
36355;SDS011;22384;54.302;18.596;2022-10-31T05:50:07;169.93;;;35.95;;
36355;SDS011;22384;54.302;18.596;2022-10-31T05:52:34;199.32;;;36.08;;
36355;SDS011;22384;54.302;18.596;2022-10-31T05:55:00;179.95;;;39.50;;
36355;SDS011;22384;54.302;18.596;2022-10-31T05:57:26;183.30;;;52.63;;
36355;SDS011;22384;54.302;18.596;2022-10-31T05:59:53;159.60;;;39.85;;
36355;SDS011;22384;54.302;18.596;2022-10-31T06:02:20;164.13;;;34.90;;
36355;SDS011;22384;54.302;18.596;2022-10-31T06:04:46;176.52;;;34.28;;
36355;SDS011;22384;54.302;18.596;2022-10-31T06:07:12;114.50;;;32.67;;
36355;SDS011;22384;54.302;18.596;2022-10-31T06:09:38;124.75;;;32.40;;
36355;SDS011;22384;54.302;18.596;2022-10-31T06:12:05;102.25;;;33.67;;
36355;SDS011;22384;54.302;18.596;2022-10-31T06:14:31;111.05;;;31.70;;
36355;SDS011;22384;54.302;18.596;2022-10-31T06:16:59;87.22;;;29.30;;
36355;SDS011;22384;54.302;18.596;2022-10-31T06:19:25;103.55;;;27.92;;
36355;SDS011;22384;54.302;18.596;2022-10-31T06:21:51;92.30;;;27.73;;
36355;SDS011;22384;54.302;18.596;2022-10-31T06:24:17;89.70;;;27.98;;
36355;SDS011;22384;54.302;18.596;2022-10-31T06:26:43;88.18;;;27.42;;
36355;SDS011;22384;54.302;18.596;2022-10-31T06:29:09;88.53;;;29.58;;
36355;SDS011;22384;54.302;18.596;2022-10-31T06:31:35;91.72;;;29.30;;
36355;SDS011;22384;54.302;18.596;2022-10-31T06:34:02;80.30;;;28.10;;
36355;SDS011;22384;54.302;18.596;2022-10-31T06:36:28;78.22;;;28.75;;
36355;SDS011;22384;54.302;18.596;2022-10-31T06:38:54;80.60;;;28.05;;
36355;SDS011;22384;54.302;18.596;2022-10-31T06:41:20;72.95;;;28.02;;
36355;SDS011;22384;54.302;18.596;2022-10-31T06:43:46;69.32;;;28.98;;
36355;SDS011;22384;54.302;18.596;2022-10-31T06:46:13;106.93;;;44.67;;
36355;SDS011;22384;54.302;18.596;2022-10-31T06:48:42;99.43;;;35.95;;
36355;SDS011;22384;54.302;18.596;2022-10-31T06:51:08;104.20;;;36.20;;
36355;SDS011;22384;54.302;18.596;2022-10-31T06:53:34;89.97;;;32.65;;
36355;SDS011;22384;54.302;18.596;2022-10-31T06:56:00;102.82;;;33.88;;
36355;SDS011;22384;54.302;18.596;2022-10-31T06:58:27;103.88;;;31.33;;
36355;SDS011;22384;54.302;18.596;2022-10-31T07:00:53;84.25;;;30.88;;
36355;SDS011;22384;54.302;18.596;2022-10-31T07:03:19;90.60;;;32.28;;
36355;SDS011;22384;54.302;18.596;2022-10-31T07:05:46;92.38;;;31.77;;
36355;SDS011;22384;54.302;18.596;2022-10-31T07:08:13;92.95;;;31.75;;
36355;SDS011;22384;54.302;18.596;2022-10-31T07:10:40;85.75;;;31.88;;
36355;SDS011;22384;54.302;18.596;2022-10-31T07:13:09;94.20;;;33.80;;
36355;SDS011;22384;54.302;18.596;2022-10-31T07:15:36;99.00;;;39.42;;
36355;SDS011;22384;54.302;18.596;2022-10-31T07:18:03;106.47;;;39.15;;
36355;SDS011;22384;54.302;18.596;2022-10-31T07:20:30;113.78;;;38.05;;
36355;SDS011;22384;54.302;18.596;2022-10-31T07:22:58;104.13;;;37.80;;
36355;SDS011;22384;54.302;18.596;2022-10-31T07:25:26;99.10;;;35.33;;
36355;SDS011;22384;54.302;18.596;2022-10-31T07:27:52;105.53;;;36.72;;
36355;SDS011;22384;54.302;18.596;2022-10-31T07:30:18;101.18;;;35.80;;
36355;SDS011;22384;54.302;18.596;2022-10-31T07:32:45;140.85;;;51.78;;
36355;SDS011;22384;54.302;18.596;2022-10-31T07:35:13;104.55;;;41.88;;
36355;SDS011;22384;54.302;18.596;2022-10-31T07:37:39;104.20;;;39.22;;
36355;SDS011;22384;54.302;18.596;2022-10-31T07:40:06;98.70;;;36.92;;
36355;SDS011;22384;54.302;18.596;2022-10-31T07:42:36;95.22;;;35.78;;
36355;SDS011;22384;54.302;18.596;2022-10-31T07:45:02;89.07;;;35.50;;
36355;SDS011;22384;54.302;18.596;2022-10-31T07:47:31;92.95;;;34.97;;
36355;SDS011;22384;54.302;18.596;2022-10-31T07:50:03;89.18;;;33.10;;
36355;SDS011;22384;54.302;18.596;2022-10-31T07:52:32;80.25;;;31.70;;
36355;SDS011;22384;54.302;18.596;2022-10-31T07:54:58;83.43;;;31.38;;
36355;SDS011;22384;54.302;18.596;2022-10-31T07:57:24;93.35;;;35.55;;
36355;SDS011;22384;54.302;18.596;2022-10-31T07:59:51;106.13;;;36.60;;
36355;SDS011;22384;54.302;18.596;2022-10-31T08:02:17;93.82;;;34.92;;
36355;SDS011;22384;54.302;18.596;2022-10-31T08:04:43;76.45;;;32.85;;
36355;SDS011;22384;54.302;18.596;2022-10-31T08:07:20;79.05;;;32.78;;
36355;SDS011;22384;54.302;18.596;2022-10-31T08:09:49;80.95;;;32.45;;
36355;SDS011;22384;54.302;18.596;2022-10-31T08:12:18;77.75;;;32.17;;
36355;SDS011;22384;54.302;18.596;2022-10-31T08:14:44;76.00;;;30.42;;
36355;SDS011;22384;54.302;18.596;2022-10-31T08:17:10;70.00;;;30.60;;
36355;SDS011;22384;54.302;18.596;2022-10-31T08:19:39;86.35;;;32.70;;
36355;SDS011;22384;54.302;18.596;2022-10-31T08:22:32;76.68;;;32.20;;
36355;SDS011;22384;54.302;18.596;2022-10-31T08:25:02;80.65;;;33.35;;
36355;SDS011;22384;54.302;18.596;2022-10-31T08:30:06;83.70;;;34.95;;
36355;SDS011;22384;54.302;18.596;2022-10-31T08:32:35;75.18;;;33.50;;
36355;SDS011;22384;54.302;18.596;2022-10-31T08:35:01;84.88;;;34.67;;
36355;SDS011;22384;54.302;18.596;2022-10-31T08:37:27;81.65;;;35.10;;
36355;SDS011;22384;54.302;18.596;2022-10-31T08:39:53;83.45;;;35.13;;
36355;SDS011;22384;54.302;18.596;2022-10-31T08:42:19;75.97;;;33.22;;
36355;SDS011;22384;54.302;18.596;2022-10-31T08:44:45;76.22;;;33.33;;
36355;SDS011;22384;54.302;18.596;2022-10-31T08:47:12;73.80;;;33.58;;
36355;SDS011;22384;54.302;18.596;2022-10-31T08:49:39;79.63;;;33.25;;
36355;SDS011;22384;54.302;18.596;2022-10-31T08:52:05;73.07;;;34.42;;
36355;SDS011;22384;54.302;18.596;2022-10-31T08:54:31;71.85;;;34.65;;
36355;SDS011;22384;54.302;18.596;2022-10-31T08:56:58;84.18;;;36.15;;
36355;SDS011;22384;54.302;18.596;2022-10-31T08:59:24;82.18;;;38.45;;
36355;SDS011;22384;54.302;18.596;2022-10-31T09:01:51;81.97;;;35.88;;
36355;SDS011;22384;54.302;18.596;2022-10-31T09:04:17;86.93;;;39.58;;
36355;SDS011;22384;54.302;18.596;2022-10-31T09:06:43;71.47;;;35.03;;
36355;SDS011;22384;54.302;18.596;2022-10-31T09:09:10;83.15;;;36.47;;
36355;SDS011;22384;54.302;18.596;2022-10-31T09:11:36;76.65;;;35.35;;
36355;SDS011;22384;54.302;18.596;2022-10-31T09:14:02;77.65;;;35.03;;
36355;SDS011;22384;54.302;18.596;2022-10-31T09:16:32;74.57;;;33.33;;
36355;SDS011;22384;54.302;18.596;2022-10-31T09:18:58;78.30;;;35.83;;
36355;SDS011;22384;54.302;18.596;2022-10-31T09:21:25;70.00;;;31.80;;
36355;SDS011;22384;54.302;18.596;2022-10-31T09:23:51;77.43;;;33.58;;
36355;SDS011;22384;54.302;18.596;2022-10-31T09:26:18;69.20;;;31.35;;
36355;SDS011;22384;54.302;18.596;2022-10-31T09:28:45;68.95;;;31.05;;
36355;SDS011;22384;54.302;18.596;2022-10-31T09:31:11;67.20;;;31.25;;
36355;SDS011;22384;54.302;18.596;2022-10-31T09:33:37;69.82;;;32.03;;
36355;SDS011;22384;54.302;18.596;2022-10-31T09:36:04;59.88;;;30.00;;
36355;SDS011;22384;54.302;18.596;2022-10-31T09:38:30;66.22;;;31.55;;
36355;SDS011;22384;54.302;18.596;2022-10-31T09:51:34;63.58;;;29.85;;
36355;SDS011;22384;54.302;18.596;2022-10-31T09:54:14;59.92;;;30.65;;
36355;SDS011;22384;54.302;18.596;2022-10-31T09:56:42;61.63;;;29.88;;
36355;SDS011;22384;54.302;18.596;2022-10-31T09:59:12;61.92;;;28.63;;
36355;SDS011;22384;54.302;18.596;2022-10-31T10:06:37;64.93;;;30.83;;
36355;SDS011;22384;54.302;18.596;2022-10-31T10:09:06;56.38;;;30.17;;
36355;SDS011;22384;54.302;18.596;2022-10-31T10:11:37;59.33;;;28.73;;
36355;SDS011;22384;54.302;18.596;2022-10-31T10:19:50;70.63;;;31.48;;
36355;SDS011;22384;54.302;18.596;2022-10-31T10:30:17;64.68;;;30.80;;
36355;SDS011;22384;54.302;18.596;2022-10-31T10:35:17;72.32;;;32.25;;
36355;SDS011;22384;54.302;18.596;2022-10-31T10:37:45;65.45;;;31.55;;
36355;SDS011;22384;54.302;18.596;2022-10-31T10:42:39;73.07;;;30.67;;
36355;SDS011;22384;54.302;18.596;2022-10-31T10:45:24;72.45;;;29.90;;
36355;SDS011;22384;54.302;18.596;2022-10-31T10:48:14;76.68;;;30.38;;
36355;SDS011;22384;54.302;18.596;2022-10-31T10:50:48;73.28;;;28.92;;
36355;SDS011;22384;54.302;18.596;2022-10-31T10:53:25;70.22;;;28.55;;
36355;SDS011;22384;54.302;18.596;2022-10-31T10:56:04;67.55;;;28.77;;
36355;SDS011;22384;54.302;18.596;2022-10-31T10:58:34;64.28;;;27.77;;
36355;SDS011;22384;54.302;18.596;2022-10-31T11:01:08;70.32;;;30.00;;
36355;SDS011;22384;54.302;18.596;2022-10-31T11:03:34;67.18;;;30.25;;
36355;SDS011;22384;54.302;18.596;2022-10-31T11:06:01;67.78;;;28.63;;
36355;SDS011;22384;54.302;18.596;2022-10-31T11:08:31;72.78;;;28.77;;
36355;SDS011;22384;54.302;18.596;2022-10-31T11:13:43;68.00;;;28.95;;
36355;SDS011;22384;54.302;18.596;2022-10-31T11:16:14;65.00;;;29.17;;
36355;SDS011;22384;54.302;18.596;2022-10-31T11:18:44;63.90;;;28.88;;
36355;SDS011;22384;54.302;18.596;2022-10-31T11:21:21;60.70;;;27.80;;
36355;SDS011;22384;54.302;18.596;2022-10-31T11:23:48;62.67;;;27.30;;
36355;SDS011;22384;54.302;18.596;2022-10-31T11:26:21;59.45;;;27.13;;
36355;SDS011;22384;54.302;18.596;2022-10-31T11:28:59;56.00;;;24.23;;
36355;SDS011;22384;54.302;18.596;2022-10-31T11:31:27;49.22;;;26.00;;
36355;SDS011;22384;54.302;18.596;2022-10-31T11:34:03;45.60;;;22.02;;
36355;SDS011;22384;54.302;18.596;2022-10-31T11:36:31;42.28;;;22.73;;
36355;SDS011;22384;54.302;18.596;2022-10-31T11:38:58;46.35;;;24.52;;
36355;SDS011;22384;54.302;18.596;2022-10-31T11:43:55;44.42;;;24.33;;
36355;SDS011;22384;54.302;18.596;2022-10-31T11:48:48;47.00;;;23.40;;
36355;SDS011;22384;54.302;18.596;2022-10-31T11:51:24;43.88;;;24.65;;
36355;SDS011;22384;54.302;18.596;2022-10-31T11:53:51;42.45;;;23.48;;
36355;SDS011;22384;54.302;18.596;2022-10-31T11:56:18;39.75;;;22.42;;
36355;SDS011;22384;54.302;18.596;2022-10-31T11:58:54;36.53;;;21.17;;
36355;SDS011;22384;54.302;18.596;2022-10-31T12:01:25;37.92;;;21.10;;
36355;SDS011;22384;54.302;18.596;2022-10-31T12:06:23;42.03;;;23.33;;
36355;SDS011;22384;54.302;18.596;2022-10-31T12:08:51;40.67;;;22.35;;
36355;SDS011;22384;54.302;18.596;2022-10-31T12:16:20;33.00;;;20.20;;
36355;SDS011;22384;54.302;18.596;2022-10-31T12:21:42;35.13;;;21.10;;
36355;SDS011;22384;54.302;18.596;2022-10-31T12:24:18;36.58;;;20.67;;
36355;SDS011;22384;54.302;18.596;2022-10-31T12:26:50;29.20;;;18.15;;
36355;SDS011;22384;54.302;18.596;2022-10-31T12:37:12;31.25;;;18.88;;
36355;SDS011;22384;54.302;18.596;2022-10-31T12:44:57;29.67;;;18.80;;
36355;SDS011;22384;54.302;18.596;2022-10-31T12:49:58;29.70;;;18.75;;
36355;SDS011;22384;54.302;18.596;2022-10-31T12:55:00;31.13;;;19.52;;
36355;SDS011;22384;54.302;18.596;2022-10-31T12:57:31;37.47;;;20.45;;
36355;SDS011;22384;54.302;18.596;2022-10-31T13:05:39;32.05;;;18.85;;
36355;SDS011;22384;54.302;18.596;2022-10-31T13:08:08;40.95;;;24.30;;
36355;SDS011;22384;54.302;18.596;2022-10-31T13:10:42;35.75;;;20.95;;
36355;SDS011;22384;54.302;18.596;2022-10-31T13:18:29;36.10;;;21.45;;
36355;SDS011;22384;54.302;18.596;2022-10-31T13:20:57;32.80;;;20.75;;
36355;SDS011;22384;54.302;18.596;2022-10-31T13:23:34;41.67;;;25.15;;
36355;SDS011;22384;54.302;18.596;2022-10-31T13:26:05;60.00;;;34.15;;
36355;SDS011;22384;54.302;18.596;2022-10-31T13:31:11;45.50;;;25.70;;
36355;SDS011;22384;54.302;18.596;2022-10-31T13:33:42;42.38;;;24.48;;
36355;SDS011;22384;54.302;18.596;2022-10-31T13:46:50;39.80;;;22.00;;
36355;SDS011;22384;54.302;18.596;2022-10-31T13:54:33;42.95;;;25.33;;
36355;SDS011;22384;54.302;18.596;2022-10-31T13:59:56;34.90;;;21.58;;
36355;SDS011;22384;54.302;18.596;2022-10-31T14:02:36;34.58;;;21.65;;
36355;SDS011;22384;54.302;18.596;2022-10-31T14:05:06;37.95;;;21.50;;
36355;SDS011;22384;54.302;18.596;2022-10-31T14:07:44;39.00;;;22.02;;
36355;SDS011;22384;54.302;18.596;2022-10-31T14:12:53;41.67;;;24.08;;
36355;SDS011;22384;54.302;18.596;2022-10-31T14:15:28;39.33;;;23.48;;
36355;SDS011;22384;54.302;18.596;2022-10-31T14:17:55;39.60;;;23.30;;
36355;SDS011;22384;54.302;18.596;2022-10-31T14:20:25;40.72;;;22.40;;
36355;SDS011;22384;54.302;18.596;2022-10-31T14:22:51;33.30;;;21.48;;
36355;SDS011;22384;54.302;18.596;2022-10-31T14:25:31;35.80;;;22.30;;
36355;SDS011;22384;54.302;18.596;2022-10-31T14:27:58;35.83;;;22.17;;
36355;SDS011;22384;54.302;18.596;2022-10-31T14:30:26;39.90;;;22.15;;
36355;SDS011;22384;54.302;18.596;2022-10-31T14:32:57;33.47;;;21.15;;
36355;SDS011;22384;54.302;18.596;2022-10-31T14:35:25;35.78;;;21.67;;
36355;SDS011;22384;54.302;18.596;2022-10-31T14:40:52;37.67;;;22.75;;
36355;SDS011;22384;54.302;18.596;2022-10-31T14:45:55;43.28;;;23.25;;
36355;SDS011;22384;54.302;18.596;2022-10-31T14:50:57;39.03;;;21.55;;
36355;SDS011;22384;54.302;18.596;2022-10-31T14:53:26;36.55;;;21.13;;
36355;SDS011;22384;54.302;18.596;2022-10-31T14:55:54;34.17;;;20.10;;
36355;SDS011;22384;54.302;18.596;2022-10-31T14:58:22;34.55;;;19.58;;
36355;SDS011;22384;54.302;18.596;2022-10-31T15:00:50;33.60;;;20.15;;
36355;SDS011;22384;54.302;18.596;2022-10-31T15:03:25;32.35;;;18.98;;
36355;SDS011;22384;54.302;18.596;2022-10-31T15:05:56;34.65;;;19.77;;
36355;SDS011;22384;54.302;18.596;2022-10-31T15:08:37;32.88;;;19.85;;
36355;SDS011;22384;54.302;18.596;2022-10-31T15:11:10;38.50;;;20.67;;
36355;SDS011;22384;54.302;18.596;2022-10-31T15:13:58;32.88;;;20.85;;
36355;SDS011;22384;54.302;18.596;2022-10-31T15:16:30;33.63;;;20.40;;
36355;SDS011;22384;54.302;18.596;2022-10-31T15:18:58;34.47;;;20.23;;
36355;SDS011;22384;54.302;18.596;2022-10-31T15:21:26;33.38;;;20.42;;
36355;SDS011;22384;54.302;18.596;2022-10-31T15:23:54;35.08;;;21.00;;
36355;SDS011;22384;54.302;18.596;2022-10-31T15:26:23;36.05;;;20.58;;
36355;SDS011;22384;54.302;18.596;2022-10-31T15:28:59;39.42;;;21.73;;
36355;SDS011;22384;54.302;18.596;2022-10-31T15:31:27;35.40;;;20.55;;
36355;SDS011;22384;54.302;18.596;2022-10-31T15:33:53;38.38;;;21.98;;
36355;SDS011;22384;54.302;18.596;2022-10-31T15:36:25;36.85;;;20.45;;
36355;SDS011;22384;54.302;18.596;2022-10-31T15:38:51;44.63;;;23.33;;
36355;SDS011;22384;54.302;18.596;2022-10-31T15:41:35;43.28;;;23.08;;
36355;SDS011;22384;54.302;18.596;2022-10-31T15:44:03;36.30;;;23.10;;
36355;SDS011;22384;54.302;18.596;2022-10-31T15:46:31;42.10;;;23.25;;
36355;SDS011;22384;54.302;18.596;2022-10-31T15:48:58;35.92;;;22.05;;
36355;SDS011;22384;54.302;18.596;2022-10-31T15:51:25;43.00;;;22.15;;
36355;SDS011;22384;54.302;18.596;2022-10-31T15:53:52;48.63;;;24.50;;
36355;SDS011;22384;54.302;18.596;2022-10-31T15:56:21;47.00;;;23.42;;
36355;SDS011;22384;54.302;18.596;2022-10-31T15:58:48;43.80;;;23.70;;
36355;SDS011;22384;54.302;18.596;2022-10-31T16:01:27;43.50;;;23.92;;
36355;SDS011;22384;54.302;18.596;2022-10-31T16:03:58;42.13;;;23.27;;
36355;SDS011;22384;54.302;18.596;2022-10-31T16:06:24;43.97;;;23.27;;
36355;SDS011;22384;54.302;18.596;2022-10-31T16:08:51;37.85;;;22.60;;
36355;SDS011;22384;54.302;18.596;2022-10-31T16:11:22;39.72;;;22.50;;
36355;SDS011;22384;54.302;18.596;2022-10-31T16:13:53;43.58;;;23.48;;
36355;SDS011;22384;54.302;18.596;2022-10-31T16:16:19;45.05;;;21.95;;
36355;SDS011;22384;54.302;18.596;2022-10-31T16:18:47;43.17;;;23.70;;
36355;SDS011;22384;54.302;18.596;2022-10-31T16:21:13;43.95;;;22.83;;
36355;SDS011;22384;54.302;18.596;2022-10-31T16:23:53;41.05;;;22.75;;
36355;SDS011;22384;54.302;18.596;2022-10-31T16:26:21;43.85;;;22.85;;
36355;SDS011;22384;54.302;18.596;2022-10-31T16:28:51;38.85;;;22.02;;
36355;SDS011;22384;54.302;18.596;2022-10-31T16:33:47;44.10;;;22.02;;
36355;SDS011;22384;54.302;18.596;2022-10-31T16:36:33;38.90;;;21.48;;
36355;SDS011;22384;54.302;18.596;2022-10-31T16:39:03;37.80;;;21.15;;